Time;durP1;ratioP1;P1;durP2;ratioP2;P2;SDS_P1;SDS_P2;PMS_P1;PMS_P2;Temp;Humidity;BMP_temperature;BMP_pressure;BME280_temperature;BME280_humidity;BME280_pressure;Samples;Min_cycle;Max_cycle;Signal;HPM_P1;HPM_P2
2021/07/27 00:02:07;;;;;;;;;;;;;;;;;;5061479;28;19933;-64
2021/07/27 00:04:34;;;;;;;;;;;;;;;;;;5064552;28;19925;-64
2021/07/27 00:07:00;;;;;;;;;;;;;;;;;;5053295;28;19929;-65
2021/07/27 00:09:27;;;;;;;;;;;;;;;;;;5051043;28;19939;-65
2021/07/27 00:11:54;;;;;;;;;;;;;;;;;;5065107;28;19931;-65
2021/07/27 00:14:21;;;;;;;;;;;;;;;;;;5062324;28;19925;-65
2021/07/27 00:16:48;;;;;;;;;;;;;;;;;;5055766;28;19924;-65
2021/07/27 00:19:15;;;;;;;;;;;;;;;;;;5057635;28;19931;-64
2021/07/27 00:21:42;;;;;;;;;;;;;;;;;;5054854;28;19924;-65
2021/07/27 00:24:10;;;;;;;;;;;;;;;;;;5056892;28;20272;-64
2021/07/27 00:26:37;;;;;;;;;;;;;;;;;;5061219;28;20392;-65
2021/07/27 00:29:04;;;;;;;;;;;;;;;;;;5065734;28;19947;-65
2021/07/27 00:31:31;;;;;;;;;;;;;;;;;;5067622;28;19928;-64
2021/07/27 00:33:58;;;;;;;;;;;;;;;;;;5051902;28;20289;-64
2021/07/27 00:36:25;;;;;;;;;;;;;;;;;;5066382;28;19935;-64
2021/07/27 00:38:52;;;;;;;;;;;;;;;;;;5060434;28;19970;-64
2021/07/27 00:41:19;;;;;;;;;;;;;;;;;;5056429;28;20283;-63
2021/07/27 00:43:46;;;;;;;;;;;;;;;;;;5068747;28;19931;-64
2021/07/27 00:46:13;;;;;;;;;;;;;;;;;;5054817;28;19925;-62
2021/07/27 00:48:40;;;;;;;;;;;;;;;;;;5069488;28;20392;-64
2021/07/27 00:51:06;;;;;;;;;;;;;;;;;;5059788;28;19947;-64
2021/07/27 00:53:33;;;;;;;;;;;;;;;;;;5057137;28;19976;-64
2021/07/27 00:56:00;;;;;;;;;;;;;;;;;;5069503;28;19951;-64
2021/07/27 00:58:27;;;;;;;;;;;;;;;;;;5050954;28;19925;-63
2021/07/27 01:00:54;;;;;;;;;;;;;;;;;;5063198;28;19925;-66
2021/07/27 01:03:21;;;;;;;;;;;;;;;;;;5062681;28;19924;-69
2021/07/27 01:05:48;;;;;;;;;;;;;;;;;;5063909;28;20294;-66
2021/07/27 01:08:15;;;;;;;;;;;;;;;;;;5050880;28;20302;-66
2021/07/27 01:10:42;;;;;;;;;;;;;;;;;;5063816;28;20031;-66
2021/07/27 01:13:10;;;;;;;;;;;;;;;;;;5071795;28;19928;-65
2021/07/27 01:15:37;;;;;;;;;;;;;;;;;;5055680;28;19925;-64
2021/07/27 01:18:07;;;;;;;;;;;;;;;;;;5062255;28;19940;-65
2021/07/27 01:20:49;;;;;;;;;;;;;;;;;;5063893;28;20011;-66
2021/07/27 01:39:44;;;;;;;;;;;;;;;;;;5071913;28;19923;-66
2021/07/27 01:42:12;;;;;;;;;;;;;;;;;;5063051;28;19929;-66
2021/07/27 01:44:44;;;;;;;;;;;;;;;;;;5072382;28;19976;-66
2021/07/27 01:47:11;;;;;;;;;;;;;;;;;;5071512;28;19928;-66
2021/07/27 01:49:38;;;;;;;;;;;;;;;;;;5059022;28;19925;-66
2021/07/27 01:52:09;;;;;;;;;;;;;;;;;;5062189;28;19925;-64
2021/07/27 01:54:41;;;;;;;;;;;;;;;;;;5059417;28;19925;-64
2021/07/27 01:57:08;;;;;;;;;;;;;;;;;;5071917;28;19935;-66
2021/07/27 01:59:35;;;;;;;;;;;;;;;;;;5053502;28;19924;-66
2021/07/27 02:02:02;;;;;;;;;;;;;;;;;;5067701;28;19925;-66
2021/07/27 02:04:29;;;;;;;;;;;;;;;;;;5064566;28;20023;-65
2021/07/27 02:06:56;;;;;;;;;;;;;;;;;;5062431;28;19932;-66
2021/07/27 02:09:23;;;;;;;;;;;;;;;;;;5064912;28;20388;-65
2021/07/27 02:11:54;;;;;;;;;;;;;;;;;;5054161;28;19928;-66
2021/07/27 02:14:24;;;;;;;;;;;;;;;;;;5068321;28;20488;-64
2021/07/27 02:16:51;;;;;;;;;;;;;;;;;;5062069;28;19986;-66
2021/07/27 02:19:18;;;;;;;;;;;;;;;;;;5058563;28;19931;-64
2021/07/27 02:21:45;;;;;;;;;;;;;;;;;;5069486;28;19936;-66
2021/07/27 02:24:12;;;;;;;;;;;;;;;;;;5053517;28;19929;-65
2021/07/27 02:26:39;;;;;;;;;;;;;;;;;;5071276;28;19925;-66
2021/07/27 02:29:06;;;;;;;;;;;;;;;;;;5064297;28;20307;-64
2021/07/27 02:31:38;;;;;;;;;;;;;;;;;;5062168;28;19964;-64
2021/07/27 02:34:05;;;;;;;;;;;;;;;;;;5061320;28;19931;-66
2021/07/27 02:36:32;;;;;;;;;;;;;;;;;;5072315;28;19936;-64
2021/07/27 02:38:58;;;;;;;;;;;;;;;;;;5057438;28;19933;-65
2021/07/27 02:41:25;;;;;;;;;;;;;;;;;;5059362;28;19925;-66
2021/07/27 02:43:52;;;;;;;;;;;;;;;;;;5055035;28;19924;-66
2021/07/27 02:46:19;;;;;;;;;;;;;;;;;;5062863;28;19947;-66
2021/07/27 02:48:46;;;;;;;;;;;;;;;;;;5071414;28;19925;-66
2021/07/27 02:51:13;;;;;;;;;;;;;;;;;;5053510;28;19924;-66
2021/07/27 02:53:40;;;;;;;;;;;;;;;;;;5067468;28;19929;-66
2021/07/27 02:56:07;;;;;;;;;;;;;;;;;;5056007;28;19925;-66
2021/07/27 02:58:34;;;;;;;;;;;;;;;;;;5060996;28;19925;-66
2021/07/27 03:01:01;;;;;;;;;;;;;;;;;;5052319;28;19972;-65
2021/07/27 03:03:28;;;;;;;;;;;;;;;;;;5073066;28;19928;-65
2021/07/27 03:05:57;;;;;;;;;;;;;;;;;;5072954;28;20015;-65
2021/07/27 03:08:33;;;;;;;;;;;;;;;;;;5057587;28;19932;-65
2021/07/27 03:11:00;;;;;;;;;;;;;;;;;;5058302;28;19932;-65
2021/07/27 03:13:27;;;;;;;;;;;;;;;;;;5070103;28;19932;-65
2021/07/27 03:15:54;;;;;;;;;;;;;;;;;;5066666;28;19929;-65
2021/07/27 03:18:21;;;;;;;;;;;;;;;;;;5052635;28;20396;-65
2021/07/27 03:20:48;;;;;;;;;;;;;;;;;;5071276;28;20391;-65
2021/07/27 03:23:15;;;;;;;;;;;;;;;;;;5063897;28;19924;-65
2021/07/27 03:25:42;;;;;;;;;;;;;;;;;;5061297;28;19933;-64
2021/07/27 03:28:09;;;;;;;;;;;;;;;;;;5060864;28;19925;-64
2021/07/27 03:30:36;;;;;;;;;;;;;;;;;;5059226;28;20385;-64
2021/07/27 03:33:03;;;;;;;;;;;;;;;;;;5071976;28;20300;-64
2021/07/27 03:35:30;;;;;;;;;;;;;;;;;;5055688;28;19925;-65
2021/07/27 03:37:57;;;;;;;;;;;;;;;;;;5057885;28;20135;-65
2021/07/27 03:40:24;;;;;;;;;;;;;;;;;;5064048;22;20103;-65
2021/07/27 03:42:51;;;;;;;;;;;;;;;;;;5052340;28;19929;-64
2021/07/27 03:45:18;;;;;;;;;;;;;;;;;;5054249;28;19925;-64
2021/07/27 03:47:45;;;;;;;;;;;;;;;;;;5052161;28;19929;-64
2021/07/27 03:50:12;;;;;;;;;;;;;;;;;;5034457;28;20400;-64
2021/07/27 03:52:39;;;;;;;;;;;;;;;;;;5016748;28;19925;-64
2021/07/27 03:55:06;;;;;;;;;;;;;;;;;;5026326;28;19926;-64
2021/07/27 03:57:33;;;;;;;;;;;;;;;;;;5014746;28;19969;-64
2021/07/27 04:00:00;;;;;;;;;;;;;;;;;;5025567;28;20274;-64
2021/07/27 04:02:27;;;;;;;;;;;;;;;;;;5028683;28;20332;-65
2021/07/27 04:04:54;;;;;;;;;;;;;;;;;;5023134;28;19925;-65
2021/07/27 04:07:21;;;;;;;;;;;;;;;;;;5022934;28;19925;-65
2021/07/27 04:09:48;;;;;;;;;;;;;;;;;;5030583;28;20012;-65
2021/07/27 04:12:15;;;;;;;;;;;;;;;;;;5018511;28;19926;-64
2021/07/27 04:14:41;;;;;;;;;;;;;;;;;;5021070;28;19937;-65
2021/07/27 04:17:08;;;;;;;;;;;;;;;;;;5012855;28;19926;-65
2021/07/27 04:19:35;;;;;;;;;;;;;;;;;;5019612;28;19925;-66
2021/07/27 04:22:02;;;;;;;;;;;;;;;;;;5022743;28;19925;-66
2021/07/27 04:24:29;;;;;;;;;;;;;;;;;;5018028;28;19934;-66
2021/07/27 04:26:56;;;;;;;;;;;;;;;;;;5018491;28;19925;-66
2021/07/27 04:29:23;;;;;;;;;;;;;;;;;;5019701;28;19948;-66
2021/07/27 04:31:50;;;;;;;;;;;;;;;;;;5018203;28;19935;-66
2021/07/27 04:34:17;;;;;;;;;;;;;;;;;;5022499;28;19929;-66
2021/07/27 04:36:44;;;;;;;;;;;;;;;;;;5028878;28;19925;-66
2021/07/27 04:39:11;;;;;;;;;;;;;;;;;;5022618;28;19932;-66
2021/07/27 04:41:38;;;;;;;;;;;;;;;;;;5029786;28;19936;-66
2021/07/27 04:44:05;;;;;;;;;;;;;;;;;;5030925;28;19925;-66
2021/07/27 04:46:32;;;;;;;;;;;;;;;;;;5048982;28;20381;-66
2021/07/27 04:48:59;;;;;;;;;;;;;;;;;;5046809;28;20296;-66
2021/07/27 04:51:26;;;;;;;;;;;;;;;;;;5023369;28;19925;-66
2021/07/27 04:53:58;;;;;;;;;;;;;;;;;;5023787;28;19925;-66
2021/07/27 04:56:25;;;;;;;;;;;;;;;;;;5022289;28;19929;-66
2021/07/27 04:58:52;;;;;;;;;;;;;;;;;;5012748;28;19932;-66
2021/07/27 05:01:19;;;;;;;;;;;;;;;;;;5011647;28;19926;-66
2021/07/27 05:03:46;;;;;;;;;;;;;;;;;;5027903;28;19947;-66
2021/07/27 05:06:13;;;;;;;;;;;;;;;;;;5012542;28;19930;-66
2021/07/27 05:08:42;;;;;;;;;;;;;;;;;;5024277;28;19931;-66
2021/07/27 05:11:09;;;;;;;;;;;;;;;;;;5016037;28;20020;-66
2021/07/27 05:13:36;;;;;;;;;;;;;;;;;;5026323;28;19936;-66
2021/07/27 05:16:03;;;;;;;;;;;;;;;;;;5038860;28;19925;-66
2021/07/27 05:18:29;;;;;;;;;;;;;;;;;;5046511;28;20308;-66
2021/07/27 05:20:56;;;;;;;;;;;;;;;;;;5035213;28;19929;-66
2021/07/27 05:23:23;;;;;;;;;;;;;;;;;;5024348;28;19956;-67
2021/07/27 05:25:50;;;;;;;;;;;;;;;;;;5029372;28;20380;-66
2021/07/27 05:28:17;;;;;;;;;;;;;;;;;;5023593;28;19933;-66
2021/07/27 05:30:44;;;;;;;;;;;;;;;;;;5021960;28;20308;-66
2021/07/27 05:33:11;;;;;;;;;;;;;;;;;;5021486;28;19925;-66
2021/07/27 05:35:38;;;;;;;;;;;;;;;;;;5034911;28;20409;-66
2021/07/27 05:38:05;;;;;;;;;;;;;;;;;;5024720;28;19925;-66
2021/07/27 05:40:32;;;;;;;;;;;;;;;;;;5015461;28;19925;-66
2021/07/27 05:42:59;;;;;;;;;;;;;;;;;;5023071;28;19926;-67
2021/07/27 05:45:26;;;;;;;;;;;;;;;;;;5023946;28;19925;-66
2021/07/27 05:47:53;;;;;;;;;;;;;;;;;;5029986;28;19925;-66
2021/07/27 05:50:20;;;;;;;;;;;;;;;;;;5020586;28;20022;-66
2021/07/27 05:52:47;;;;;;;;;;;;;;;;;;5023043;28;19931;-66
2021/07/27 05:55:14;;;;;;;;;;;;;;;;;;5030322;28;19933;-66
2021/07/27 05:57:41;;;;;;;;;;;;;;;;;;5014597;28;19929;-66
2021/07/27 06:00:08;;;;;;;;;;;;;;;;;;5022032;28;19934;-66
2021/07/27 06:02:35;;;;;;;;;;;;;;;;;;5015066;28;19925;-66
2021/07/27 06:05:02;;;;;;;;;;;;;;;;;;5022076;28;20377;-66
2021/07/27 06:07:31;;;;;;;;;;;;;;;;;;5015282;28;19947;-66
2021/07/27 06:09:58;;;;;;;;;;;;;;;;;;5014069;28;19930;-65
2021/07/27 06:12:25;;;;;;;;;;;;;;;;;;5022801;28;19926;-65
2021/07/27 06:14:52;;;;;;;;;;;;;;;;;;5028189;28;19925;-64
2021/07/27 06:17:19;;;;;;;;;;;;;;;;;;5023607;28;19925;-65
2021/07/27 06:19:46;;;;;;;;;;;;;;;;;;5026813;28;19932;-64
2021/07/27 06:22:13;;;;;;;;;;;;;;;;;;5014194;28;19949;-69
2021/07/27 06:24:40;;;;;;;;;;;;;;;;;;5026261;28;19931;-70
2021/07/27 06:27:07;;;;;;;;;;;;;;;;;;5025291;28;19932;-68
2021/07/27 06:29:34;;;;;;;;;;;;;;;;;;5014778;28;19930;-70
2021/07/27 06:32:01;;;;;;;;;;;;;;;;;;5025766;28;19931;-67
2021/07/27 06:34:28;;;;;;;;;;;;;;;;;;5018512;28;20292;-66
2021/07/27 06:36:55;;;;;;;;;;;;;;;;;;5023950;28;19925;-66
2021/07/27 06:39:22;;;;;;;;;;;;;;;;;;5029921;28;19936;-68
2021/07/27 06:41:54;;;;;;;;;;;;;;;;;;5030808;28;20012;-67
2021/07/27 06:44:21;;;;;;;;;;;;;;;;;;5027899;28;19925;-68
2021/07/27 06:46:48;;;;;;;;;;;;;;;;;;5038897;28;19929;-67
2021/07/27 06:49:15;;;;;;;;;;;;;;;;;;5017619;28;19933;-68
2021/07/27 06:51:42;;;;;;;;;;;;;;;;;;5022215;28;20362;-67
2021/07/27 06:54:09;;;;;;;;;;;;;;;;;;5019131;28;19925;-69
2021/07/27 06:56:37;;;;;;;;;;;;;;;;;;5016403;28;20447;-68
2021/07/27 06:59:04;;;;;;;;;;;;;;;;;;5031865;28;19925;-65
2021/07/27 07:01:31;;;;;;;;;;;;;;;;;;5025026;28;19929;-65
2021/07/27 07:03:58;;;;;;;;;;;;;;;;;;5032445;28;19933;-65
2021/07/27 07:06:25;;;;;;;;;;;;;;;;;;5032595;28;19925;-65
2021/07/27 07:08:52;;;;;;;;;;;;;;;;;;5028977;28;19933;-65
2021/07/27 07:11:19;;;;;;;;;;;;;;;;;;5033574;28;20290;-65
2021/07/27 07:13:46;;;;;;;;;;;;;;;;;;5029832;28;20289;-65
2021/07/27 07:16:13;;;;;;;;;;;;;;;;;;5015704;28;20289;-64
2021/07/27 07:18:40;;;;;;;;;;;;;;;;;;5032730;28;19925;-65
2021/07/27 07:21:07;;;;;;;;;;;;;;;;;;5044545;28;19929;-65
2021/07/27 07:23:34;;;;;;;;;;;;;;;;;;5033014;28;19926;-65
2021/07/27 07:26:01;;;;;;;;;;;;;;;;;;5032724;28;19925;-64
2021/07/27 07:28:28;;;;;;;;;;;;;;;;;;5031899;28;19926;-65
2021/07/27 07:30:55;;;;;;;;;;;;;;;;;;5028544;28;19948;-65
2021/07/27 07:33:22;;;;;;;;;;;;;;;;;;5029976;28;19932;-65
2021/07/27 07:35:49;;;;;;;;;;;;;;;;;;5029917;28;19932;-65
2021/07/27 07:38:16;;;;;;;;;;;;;;;;;;5027114;28;19925;-65
2021/07/27 07:40:43;;;;;;;;;;;;;;;;;;5023966;28;19925;-65
2021/07/27 07:43:09;;;;;;;;;;;;;;;;;;5030047;28;19928;-65
2021/07/27 07:45:36;;;;;;;;;;;;;;;;;;5036869;28;20373;-65
2021/07/27 07:48:03;;;;;;;;;;;;;;;;;;5024432;28;20309;-65
2021/07/27 07:50:31;;;;;;;;;;;;;;;;;;5031364;28;20169;-65
2021/07/27 07:52:59;;;;;;;;;;;;;;;;;;5028002;28;19983;-65
2021/07/27 07:55:26;;;;;;;;;;;;;;;;;;5015504;28;19971;-67
2021/07/27 07:57:53;;;;;;;;;;;;;;;;;;5032614;28;19947;-64
2021/07/27 08:00:20;;;;;;;;;;;;;;;;;;5032192;28;19925;-64
2021/07/27 08:02:47;;;;;;;;;;;;;;;;;;5031353;28;19925;-64
2021/07/27 08:05:14;;;;;;;;;;;;;;;;;;5031836;28;19933;-65
2021/07/27 08:07:41;;;;;;;;;;;;;;;;;;5030838;28;19925;-65
2021/07/27 08:10:08;;;;;;;;;;;;;;;;;;5016204;28;19951;-65
2021/07/27 08:12:35;;;;;;;;;;;;;;;;;;5030653;28;19932;-65
2021/07/27 08:15:02;;;;;;;;;;;;;;;;;;5042286;28;19924;-66
2021/07/27 08:17:30;;;;;;;;;;;;;;;;;;5033241;28;19929;-65
2021/07/27 08:19:58;;;;;;;;;;;;;;;;;;5022946;28;19991;-65
2021/07/27 08:22:25;;;;;;;;;;;;;;;;;;5023800;28;20309;-65
2021/07/27 08:24:52;;;;;;;;;;;;;;;;;;5024034;28;19933;-64
2021/07/27 08:27:19;;;;;;;;;;;;;;;;;;5025933;28;19929;-65
2021/07/27 08:29:46;;;;;;;;;;;;;;;;;;5044836;28;20464;-65
2021/07/27 08:32:13;;;;;;;;;;;;;;;;;;5043516;28;19959;-66
2021/07/27 08:34:41;;;;;;;;;;;;;;;;;;5028094;28;19933;-66
2021/07/27 08:37:08;;;;;;;;;;;;;;;;;;5024148;28;19972;-66
2021/07/27 08:39:35;;;;;;;;;;;;;;;;;;5024301;28;19926;-67
2021/07/27 08:42:02;;;;;;;;;;;;;;;;;;5025679;28;19926;-66
2021/07/27 08:44:29;;;;;;;;;;;;;;;;;;5022700;28;20317;-66
2021/07/27 08:46:56;;;;;;;;;;;;;;;;;;5024658;28;19999;-67
2021/07/27 08:49:23;;;;;;;;;;;;;;;;;;5021888;28;19925;-68
2021/07/27 08:51:50;;;;;;;;;;;;;;;;;;5024428;28;19936;-67
2021/07/27 08:54:17;;;;;;;;;;;;;;;;;;5021406;28;20393;-67
2021/07/27 08:56:45;;;;;;;;;;;;;;;;;;5023761;28;19964;-68
2021/07/27 08:59:12;;;;;;;;;;;;;;;;;;5018441;28;19979;-68
2021/07/27 09:01:39;;;;;;;;;;;;;;;;;;5021620;28;20294;-67
2021/07/27 09:04:06;;;;;;;;;;;;;;;;;;5019889;28;19943;-67
2021/07/27 09:06:32;;;;;;;;;;;;;;;;;;5023707;28;20016;-67
2021/07/27 09:08:59;;;;;;;;;;;;;;;;;;5020760;28;19929;-66
2021/07/27 09:11:26;;;;;;;;;;;;;;;;;;5023181;28;19925;-68
2021/07/27 09:13:53;;;;;;;;;;;;;;;;;;5021787;28;19925;-67
2021/07/27 09:16:20;;;;;;;;;;;;;;;;;;5023162;28;19925;-67
2021/07/27 09:18:47;;;;;;;;;;;;;;;;;;5020015;28;20285;-67
2021/07/27 09:21:14;;;;;;;;;;;;;;;;;;5022023;28;19933;-67
2021/07/27 09:23:41;;;;;;;;;;;;;;;;;;5019284;28;19929;-67
2021/07/27 09:26:08;;;;;;;;;;;;;;;;;;5022417;28;19926;-66
2021/07/27 09:28:35;;;;;;;;;;;;;;;;;;5022614;28;20370;-66
2021/07/27 09:31:02;;;;;;;;;;;;;;;;;;5022074;28;19925;-66
2021/07/27 09:33:29;;;;;;;;;;;;;;;;;;5021864;28;20027;-67
2021/07/27 09:35:56;;;;;;;;;;;;;;;;;;5021793;28;19925;-67
2021/07/27 09:38:24;;;;;;;;;;;;;;;;;;5024022;28;19933;-67
2021/07/27 09:40:51;;;;;;;;;;;;;;;;;;5076659;22;19925;-65
2021/07/27 09:43:18;;;;;;;;;;;;;;;;;;5064501;28;20303;-65
2021/07/27 09:45:45;;;;;;;;;;;;;;;;;;5065277;28;20019;-65
2021/07/27 09:48:12;;;;;;;;;;;;;;;;;;5063162;28;19925;-66
2021/07/27 09:50:39;;;;;;;;;;;;;;;;;;5062826;28;20418;-64
2021/07/27 09:53:06;;;;;;;;;;;;;;;;;;5058883;28;19924;-64
2021/07/27 09:55:33;;;;;;;;;;;;;;;;;;5057720;28;19924;-64
2021/07/27 09:58:00;;;;;;;;;;;;;;;;;;5062287;28;19931;-65
2021/07/27 10:00:27;;;;;;;;;;;;;;;;;;5062447;28;19931;-65
2021/07/27 10:02:54;;;;;;;;;;;;;;;;;;5063977;28;19925;-65
2021/07/27 10:05:21;;;;;;;;;;;;;;;;;;5061956;28;19931;-65
2021/07/27 10:07:49;;;;;;;;;;;;;;;;;;5064434;28;19933;-63
2021/07/27 10:10:16;;;;;;;;;;;;;;;;;;5063221;28;19924;-64
2021/07/27 10:12:43;;;;;;;;;;;;;;;;;;5063830;28;19924;-64
2021/07/27 10:15:11;;;;;;;;;;;;;;;;;;5065998;28;19934;-64
2021/07/27 10:17:38;;;;;;;;;;;;;;;;;;5065570;28;19932;-64
2021/07/27 10:20:04;;;;;;;;;;;;;;;;;;5063515;28;20430;-64
2021/07/27 10:22:31;;;;;;;;;;;;;;;;;;5058677;28;20080;-64
2021/07/27 10:24:58;;;;;;;;;;;;;;;;;;5066108;28;20269;-64
2021/07/27 10:27:25;;;;;;;;;;;;;;;;;;5063474;28;20406;-64
2021/07/27 10:29:52;;;;;;;;;;;;;;;;;;5063101;28;20014;-64
2021/07/27 10:32:21;;;;;;;;;;;;;;;;;;5066410;28;20474;-64
2021/07/27 10:34:47;;;;;;;;;;;;;;;;;;5064334;28;20415;-65
2021/07/27 10:37:14;;;;;;;;;;;;;;;;;;5064943;28;19925;-64
2021/07/27 10:39:41;;;;;;;;;;;;;;;;;;5064170;28;19924;-64
2021/07/27 10:42:08;;;;;;;;;;;;;;;;;;5064764;28;19925;-64
2021/07/27 10:44:35;;;;;;;;;;;;;;;;;;5065616;28;20008;-65
2021/07/27 10:47:02;;;;;;;;;;;;;;;;;;5068487;28;19931;-64
2021/07/27 10:49:29;;;;;;;;;;;;;;;;;;5064612;28;20309;-64
2021/07/27 10:51:56;;;;;;;;;;;;;;;;;;5063494;28;19924;-64
2021/07/27 10:54:23;;;;;;;;;;;;;;;;;;5066274;28;19924;-64
2021/07/27 10:56:50;;;;;;;;;;;;;;;;;;5065184;28;19929;-64
2021/07/27 10:59:17;;;;;;;;;;;;;;;;;;5065902;28;19924;-64
2021/07/27 11:01:44;;;;;;;;;;;;;;;;;;5059958;28;19929;-64
2021/07/27 11:04:11;;;;;;;;;;;;;;;;;;5062977;28;19924;-65
2021/07/27 11:06:38;;;;;;;;;;;;;;;;;;5066741;28;19932;-65
2021/07/27 11:09:05;;;;;;;;;;;;;;;;;;5064015;28;19925;-64
2021/07/27 11:11:32;;;;;;;;;;;;;;;;;;5064141;28;20388;-68
2021/07/27 11:13:59;;;;;;;;;;;;;;;;;;5063698;28;19933;-65
2021/07/27 11:16:26;;;;;;;;;;;;;;;;;;5061226;28;20497;-66
2021/07/27 11:18:53;;;;;;;;;;;;;;;;;;5062350;28;19924;-66
2021/07/27 11:21:20;;;;;;;;;;;;;;;;;;5060673;28;19925;-65
2021/07/27 11:23:47;;;;;;;;;;;;;;;;;;5061837;28;19970;-65
2021/07/27 11:26:14;;;;;;;;;;;;;;;;;;5063084;28;19924;-66
2021/07/27 11:28:41;;;;;;;;;;;;;;;;;;5062732;28;20389;-66
2021/07/27 11:31:08;;;;;;;;;;;;;;;;;;5061850;28;19925;-66
2021/07/27 11:33:35;;;;;;;;;;;;;;;;;;5062379;28;19924;-66
2021/07/27 11:36:02;;;;;;;;;;;;;;;;;;5061503;28;19976;-66
2021/07/27 11:38:30;;;;;;;;;;;;;;;;;;5062437;28;20297;-66
2021/07/27 11:40:57;;;;;;;;;;;;;;;;;;5061933;28;20443;-66
2021/07/27 11:43:24;;;;;;;;;;;;;;;;;;5063605;28;19959;-68
2021/07/27 11:45:51;;;;;;;;;;;;;;;;;;5064336;28;19925;-65
2021/07/27 11:48:18;;;;;;;;;;;;;;;;;;5062104;28;19925;-67
2021/07/27 11:50:45;;;;;;;;;;;;;;;;;;5062190;28;19931;-64
2021/07/27 11:53:12;;;;;;;;;;;;;;;;;;5053605;28;19925;-63
2021/07/27 11:55:39;;;;;;;;;;;;;;;;;;5064895;28;19929;-64
2021/07/27 11:58:06;;;;;;;;;;;;;;;;;;5062448;28;19925;-65
2021/07/27 12:00:33;;;;;;;;;;;;;;;;;;5061524;28;19925;-66
2021/07/27 12:03:00;;;;;;;;;;;;;;;;;;5064462;28;20239;-64
2021/07/27 12:05:27;;;;;;;;;;;;;;;;;;5062698;28;19924;-64
2021/07/27 12:07:54;;;;;;;;;;;;;;;;;;5066915;28;19931;-65
2021/07/27 12:10:21;;;;;;;;;;;;;;;;;;5063178;28;20019;-65
2021/07/27 12:12:48;;;;;;;;;;;;;;;;;;5059994;28;19925;-64
2021/07/27 12:15:17;;;;;;;;;;;;;;;;;;5061561;28;19925;-64
2021/07/27 12:17:44;;;;;;;;;;;;;;;;;;5060490;28;19960;-64
2021/07/27 12:20:12;;;;;;;;;;;;;;;;;;5061374;28;20021;-64
2021/07/27 12:22:39;;;;;;;;;;;;;;;;;;5066054;28;19933;-64
2021/07/27 12:25:06;;;;;;;;;;;;;;;;;;5062721;28;20327;-64
2021/07/27 12:27:33;;;;;;;;;;;;;;;;;;5064831;28;19924;-64
2021/07/27 12:30:00;;;;;;;;;;;;;;;;;;5059625;28;19932;-64
2021/07/27 12:32:27;;;;;;;;;;;;;;;;;;5066743;28;20157;-63
2021/07/27 12:34:54;;;;;;;;;;;;;;;;;;5061915;28;20351;-63
2021/07/27 12:37:21;;;;;;;;;;;;;;;;;;5061763;28;19931;-66
2021/07/27 12:39:48;;;;;;;;;;;;;;;;;;5061813;28;19979;-65
2021/07/27 12:42:15;;;;;;;;;;;;;;;;;;5059920;28;19932;-65
2021/07/27 12:44:42;;;;;;;;;;;;;;;;;;5061774;28;19932;-65
2021/07/27 12:47:08;;;;;;;;;;;;;;;;;;5063657;28;19925;-66
2021/07/27 12:49:35;;;;;;;;;;;;;;;;;;5063797;28;19949;-66
2021/07/27 12:52:03;;;;;;;;;;;;;;;;;;5061501;28;19924;-65
2021/07/27 12:54:30;;;;;;;;;;;;;;;;;;5063115;28;20363;-66
2021/07/27 12:56:57;;;;;;;;;;;;;;;;;;5062887;28;19924;-65
2021/07/27 12:59:24;;;;;;;;;;;;;;;;;;5056521;28;19931;-66
2021/07/27 13:01:51;;;;;;;;;;;;;;;;;;5067450;28;20027;-66
2021/07/27 13:04:18;;;;;;;;;;;;;;;;;;5059092;28;20313;-67
2021/07/27 13:06:45;;;;;;;;;;;;;;;;;;5054767;28;20011;-67
2021/07/27 13:09:12;;;;;;;;;;;;;;;;;;5053892;28;19936;-67
2021/07/27 13:11:39;;;;;;;;;;;;;;;;;;5061623;28;19982;-65
2021/07/27 13:14:06;;;;;;;;;;;;;;;;;;5052513;28;19931;-66
2021/07/27 13:16:33;;;;;;;;;;;;;;;;;;5060089;28;19963;-66
2021/07/27 13:19:00;;;;;;;;;;;;;;;;;;5069230;28;19946;-66
2021/07/27 13:21:27;;;;;;;;;;;;;;;;;;5063038;28;20349;-66
2021/07/27 13:23:54;;;;;;;;;;;;;;;;;;5052871;28;19925;-66
2021/07/27 13:26:21;;;;;;;;;;;;;;;;;;5057382;28;20430;-66
2021/07/27 13:28:48;;;;;;;;;;;;;;;;;;5058072;28;19924;-66
2021/07/27 13:31:15;;;;;;;;;;;;;;;;;;5055170;28;19924;-66
2021/07/27 13:33:43;;;;;;;;;;;;;;;;;;5064214;28;19924;-66
2021/07/27 13:36:10;;;;;;;;;;;;;;;;;;5067192;28;20293;-66
2021/07/27 13:38:37;;;;;;;;;;;;;;;;;;5056017;28;19925;-66
2021/07/27 13:41:04;;;;;;;;;;;;;;;;;;5060373;28;19930;-65
2021/07/27 13:43:31;;;;;;;;;;;;;;;;;;5056373;28;19940;-66
2021/07/27 13:45:58;;;;;;;;;;;;;;;;;;5080422;28;20397;-66
2021/07/27 13:48:25;;;;;;;;;;;;;;;;;;5095056;28;19924;-65
2021/07/27 13:50:52;;;;;;;;;;;;;;;;;;5076688;28;20379;-66
2021/07/27 13:53:19;;;;;;;;;;;;;;;;;;5054184;28;19924;-66
2021/07/27 13:55:47;;;;;;;;;;;;;;;;;;5054067;28;19936;-66
2021/07/27 13:58:14;;;;;;;;;;;;;;;;;;5054642;28;19994;-67
2021/07/27 14:00:41;;;;;;;;;;;;;;;;;;5053528;28;19925;-65
2021/07/27 14:03:08;;;;;;;;;;;;;;;;;;5054401;28;19925;-67
2021/07/27 14:05:36;;;;;;;;;;;;;;;;;;5056776;28;20019;-66
2021/07/27 14:08:03;;;;;;;;;;;;;;;;;;5064569;28;19925;-66
2021/07/27 14:10:30;;;;;;;;;;;;;;;;;;5053807;28;19929;-66
2021/07/27 14:12:57;;;;;;;;;;;;;;;;;;5053960;28;19924;-66
2021/07/27 14:15:24;;;;;;;;;;;;;;;;;;5054398;28;19925;-65
2021/07/27 14:17:51;;;;;;;;;;;;;;;;;;5054102;28;19968;-65
2021/07/27 14:20:18;;;;;;;;;;;;;;;;;;5062064;28;20388;-65
2021/07/27 14:22:45;;;;;;;;;;;;;;;;;;5074336;28;19931;-64
2021/07/27 14:25:14;;;;;;;;;;;;;;;;;;5074003;28;19930;-65
2021/07/27 14:27:41;;;;;;;;;;;;;;;;;;5074285;28;20035;-64
2021/07/27 14:30:08;;;;;;;;;;;;;;;;;;5073782;28;20379;-65
2021/07/27 14:32:36;;;;;;;;;;;;;;;;;;5074152;28;20486;-65
2021/07/27 14:35:03;;;;;;;;;;;;;;;;;;5065333;28;20312;-63
2021/07/27 14:37:30;;;;;;;;;;;;;;;;;;5053784;28;20508;-65
2021/07/27 14:39:57;;;;;;;;;;;;;;;;;;5053414;28;19924;-65
2021/07/27 14:42:24;;;;;;;;;;;;;;;;;;5053821;28;19978;-65
2021/07/27 14:44:51;;;;;;;;;;;;;;;;;;5060428;28;19928;-64
2021/07/27 14:47:18;;;;;;;;;;;;;;;;;;5093568;28;20333;-64
2021/07/27 14:49:45;;;;;;;;;;;;;;;;;;5077561;28;19924;-64
2021/07/27 14:52:12;;;;;;;;;;;;;;;;;;5072929;28;19928;-64
2021/07/27 14:54:39;;;;;;;;;;;;;;;;;;5073445;28;19924;-65
2021/07/27 14:57:05;;;;;;;;;;;;;;;;;;5073189;28;20384;-65
2021/07/27 14:59:32;;;;;;;;;;;;;;;;;;5069906;28;20019;-67
2021/07/27 15:01:59;;;;;;;;;;;;;;;;;;5058851;28;19963;-65
2021/07/27 15:04:26;;;;;;;;;;;;;;;;;;5060767;28;19924;-64
2021/07/27 15:06:53;;;;;;;;;;;;;;;;;;5062386;28;19928;-64
2021/07/27 15:09:20;;;;;;;;;;;;;;;;;;5067140;28;19929;-64
2021/07/27 15:11:47;;;;;;;;;;;;;;;;;;5065654;28;19925;-64
2021/07/27 15:14:14;;;;;;;;;;;;;;;;;;5061586;28;19933;-64
2021/07/27 15:16:41;;;;;;;;;;;;;;;;;;5069463;28;19924;-65
2021/07/27 15:19:08;;;;;;;;;;;;;;;;;;5072764;28;20299;-65
2021/07/27 15:21:35;;;;;;;;;;;;;;;;;;5073200;28;19978;-65
2021/07/27 15:24:02;;;;;;;;;;;;;;;;;;5073071;28;19924;-64
2021/07/27 15:26:29;;;;;;;;;;;;;;;;;;5063128;28;19931;-64
2021/07/27 15:28:56;;;;;;;;;;;;;;;;;;5055157;28;20292;-65
2021/07/27 15:31:23;;;;;;;;;;;;;;;;;;5053015;28;19925;-64
2021/07/27 15:33:50;;;;;;;;;;;;;;;;;;5063404;28;19924;-65
2021/07/27 15:36:17;;;;;;;;;;;;;;;;;;5066192;28;20011;-65
2021/07/27 15:38:44;;;;;;;;;;;;;;;;;;5081540;22;19925;-64
2021/07/27 15:41:13;;;;;;;;;;;;;;;;;;5061679;28;19924;-65
2021/07/27 15:43:40;;;;;;;;;;;;;;;;;;5063100;28;20265;-65
2021/07/27 15:46:07;;;;;;;;;;;;;;;;;;5061723;28;20027;-65
2021/07/27 15:48:33;;;;;;;;;;;;;;;;;;5059234;28;19924;-64
2021/07/27 15:51:00;;;;;;;;;;;;;;;;;;5067688;28;19924;-64
2021/07/27 15:53:27;;;;;;;;;;;;;;;;;;5063172;28;19925;-64
2021/07/27 15:55:54;;;;;;;;;;;;;;;;;;5063391;28;20368;-65
2021/07/27 15:58:21;;;;;;;;;;;;;;;;;;5057740;28;19971;-65
2021/07/27 16:00:48;;;;;;;;;;;;;;;;;;5050278;28;19940;-65
2021/07/27 16:03:15;;;;;;;;;;;;;;;;;;5053831;28;19947;-65
2021/07/27 16:05:42;;;;;;;;;;;;;;;;;;5066834;28;19930;-65
2021/07/27 16:08:09;;;;;;;;;;;;;;;;;;5064909;28;20451;-66
2021/07/27 16:10:36;;;;;;;;;;;;;;;;;;5065401;28;19932;-66
2021/07/27 16:13:03;;;;;;;;;;;;;;;;;;5066368;28;20281;-65
2021/07/27 16:15:30;;;;;;;;;;;;;;;;;;5064835;28;19924;-66
2021/07/27 16:17:57;;;;;;;;;;;;;;;;;;5066860;28;19928;-65
2021/07/27 16:20:24;;;;;;;;;;;;;;;;;;5063860;28;19933;-65
2021/07/27 16:22:51;;;;;;;;;;;;;;;;;;5064768;28;19924;-65
2021/07/27 16:25:18;;;;;;;;;;;;;;;;;;5061879;28;20082;-65
2021/07/27 16:27:45;;;;;;;;;;;;;;;;;;5063585;28;20007;-65
2021/07/27 16:30:12;;;;;;;;;;;;;;;;;;5064617;28;20304;-66
2021/07/27 16:32:39;;;;;;;;;;;;;;;;;;5064615;28;19928;-66
2021/07/27 16:35:06;;;;;;;;;;;;;;;;;;5061896;28;20042;-66
2021/07/27 16:37:33;;;;;;;;;;;;;;;;;;5062468;28;19960;-66
2021/07/27 16:40:00;;;;;;;;;;;;;;;;;;5061368;28;19925;-66
2021/07/27 16:42:27;;;;;;;;;;;;;;;;;;5062611;28;19925;-66
2021/07/27 16:44:54;;;;;;;;;;;;;;;;;;5061926;28;20257;-65
2021/07/27 16:47:22;;;;;;;;;;;;;;;;;;5064949;28;19925;-66
2021/07/27 16:49:49;;;;;;;;;;;;;;;;;;5063844;28;19928;-65
2021/07/27 16:52:16;;;;;;;;;;;;;;;;;;5064447;28;19924;-65
2021/07/27 16:54:43;;;;;;;;;;;;;;;;;;5065184;28;20327;-65
2021/07/27 16:57:10;;;;;;;;;;;;;;;;;;5063983;28;19947;-66
2021/07/27 16:59:37;;;;;;;;;;;;;;;;;;5062556;28;19939;-65
2021/07/27 17:02:04;;;;;;;;;;;;;;;;;;5061576;28;19935;-66